Time;durP1;ratioP1;P1;durP2;ratioP2;P2;SDS_P1;SDS_P2;PMS_P1;PMS_P2;Temp;Humidity;BMP_temperature;BMP_pressure;BME280_temperature;BME280_humidity;BME280_pressure;Samples;Min_cycle;Max_cycle;Signal;HPM_P1;HPM_P2
2020/12/26 00:01:57;;;;;;;1.42;0.35;;;;;;;4.59;62.84;100115.82;1783155;80;21261;-50
2020/12/26 00:04:26;;;;;;;0.55;0.20;;;;;;;4.60;62.66;100130.93;1715695;83;21115;-53
2020/12/26 00:06:54;;;;;;;0.98;0.30;;;;;;;4.62;62.55;100135.58;1767657;81;20989;-52
2020/12/26 00:09:23;;;;;;;0.50;0.30;;;;;;;4.67;62.28;100145.14;1767576;81;21031;-51
2020/12/26 00:11:51;;;;;;;0.50;0.37;;;;;;;4.67;61.97;100135.17;1767518;81;21160;-51
2020/12/26 00:14:19;;;;;;;1.10;0.40;;;;;;;4.69;61.61;100128.20;1767733;81;22327;-53
2020/12/26 00:16:47;;;;;;;1.60;0.40;;;;;;;4.67;61.49;100131.13;1767639;81;20961;-50
2020/12/26 00:19:16;;;;;;;0.78;0.20;;;;;;;4.68;61.44;100136.00;1767606;81;21496;-51
2020/12/26 00:21:43;;;;;;;0.93;0.50;;;;;;;4.68;61.47;100129.26;1767555;81;21045;-49
2020/12/26 00:24:12;;;;;;;0.62;0.30;;;;;;;4.71;61.42;100125.27;1767642;81;21129;-51
2020/12/26 00:26:40;;;;;;;0.90;0.37;;;;;;;4.68;61.35;100132.77;1767710;81;21276;-50
2020/12/26 00:29:08;;;;;;;0.88;0.20;;;;;;;4.65;61.21;100135.09;1767550;80;21520;-51
2020/12/26 00:31:38;;;;;;;1.37;0.45;;;;;;;4.65;61.21;100135.09;1767653;80;20950;-51
2020/12/26 00:34:05;;;;;;;0.95;0.40;;;;;;;4.64;61.21;100132.11;1767583;81;20950;-48
2020/12/26 00:36:32;;;;;;;0.98;0.20;;;;;;;4.64;61.20;100142.37;1767703;81;21089;-49
2020/12/26 00:39:01;;;;;;;0.37;0.20;;;;;;;4.65;61.16;100150.73;1767658;81;21448;-48
2020/12/26 00:41:28;;;;;;;1.05;0.20;;;;;;;4.61;61.09;100154.12;1767548;81;20910;-49
2020/12/26 00:43:56;;;;;;;0.98;0.57;;;;;;;4.59;61.12;100165.14;1767583;80;20947;-49
2020/12/26 00:46:26;;;;;;;3.10;0.40;;;;;;;4.58;61.20;100162.69;1767485;81;20938;-52
2020/12/26 00:48:54;;;;;;;1.07;0.42;;;;;;;4.58;61.22;100168.08;1767659;81;21027;-53
2020/12/26 00:51:23;;;;;;;1.72;0.53;;;;;;;4.56;61.34;100163.42;1767531;81;21208;-52
2020/12/26 00:53:51;;;;;;;0.68;0.25;;;;;;;4.60;61.37;100172.70;1767674;81;21172;-48
2020/12/26 00:56:19;;;;;;;0.68;0.30;;;;;;;4.62;61.25;100178.16;1767736;81;20927;-53
2020/12/26 00:58:47;;;;;;;0.98;0.37;;;;;;;4.63;60.77;100177.64;1767661;81;21525;-51
2020/12/26 01:01:16;;;;;;;0.40;0.20;;;;;;;4.58;60.61;100175.63;1767682;81;20954;-50
2020/12/26 01:04:03;;;;;;;0.63;0.40;;;;;;;4.62;60.25;100178.16;1857291;75;27713;-49
2020/12/26 01:06:32;;;;;;;1.17;0.30;;;;;;;4.61;60.14;100167.59;1841451;78;21551;-51
2020/12/26 01:09:00;;;;;;;1.20;0.30;;;;;;;4.69;59.88;100168.63;1841366;78;23561;-55
2020/12/26 01:11:27;;;;;;;1.15;0.25;;;;;;;4.68;59.95;100162.95;1841314;77;20990;-48
2020/12/26 01:13:55;;;;;;;1.47;0.30;;;;;;;4.68;59.95;100152.16;1841340;78;20915;-49
2020/12/26 01:16:23;;;;;;;1.47;0.30;;;;;;;4.68;59.95;100152.16;1841442;77;20916;-50
2020/12/26 01:18:50;;;;;;;1.22;0.70;;;;;;;4.69;60.13;100160.54;1841426;78;21469;-51
2020/12/26 01:21:18;;;;;;;1.02;0.30;;;;;;;4.67;60.05;100158.61;1841506;78;21533;-50
2020/12/26 01:23:45;;;;;;;0.90;0.50;;;;;;;4.62;60.12;100157.95;1841276;78;21046;-49
2020/12/26 01:26:14;;;;;;;0.95;0.40;;;;;;;4.58;60.36;100154.08;1841270;77;21529;-50
2020/12/26 01:28:42;;;;;;;1.30;0.55;;;;;;;4.55;60.55;100147.78;1841339;78;20982;-49
2020/12/26 01:31:14;;;;;;;0.80;0.50;;;;;;;4.55;60.60;100147.78;1841536;78;20923;-52
2020/12/26 01:33:42;;;;;;;1.40;0.62;;;;;;;4.56;60.75;100145.91;1841520;78;21769;-50
2020/12/26 01:36:12;;;;;;;1.47;0.75;;;;;;;4.56;60.75;100141.38;1811625;78;20931;-51
2020/12/26 01:38:40;;;;;;;1.40;0.65;;;;;;;4.52;60.90;100137.48;1841294;77;20876;-51
2020/12/26 01:41:08;;;;;;;1.82;0.75;;;;;;;4.52;61.04;100133.45;1841365;78;21068;-50
2020/12/26 01:43:37;;;;;;;1.05;0.95;;;;;;;4.54;61.02;100138.59;1841390;78;21568;-50
2020/12/26 01:46:05;;;;;;;1.67;0.70;;;;;;;4.58;61.01;100143.83;1841275;78;22513;-50
2020/12/26 01:48:33;;;;;;;4.17;0.90;;;;;;;4.57;60.97;100144.35;1841388;78;20896;-48
2020/12/26 01:51:01;;;;;;;2.45;0.72;;;;;;;4.57;60.97;100144.35;1821803;77;21477;-49
2020/12/26 01:53:28;;;;;;;1.87;0.80;;;;;;;4.60;60.80;100150.61;1808244;79;21136;-51
2020/12/26 01:55:56;;;;;;;1.32;0.80;;;;;;;4.61;60.79;100147.38;1808250;78;21552;-48
2020/12/26 01:58:24;;;;;;;1.30;0.70;;;;;;;4.59;60.82;100148.16;1808322;79;22075;-48
2020/12/26 02:00:52;;;;;;;1.62;0.88;;;;;;;4.59;60.71;100142.77;1808116;78;21022;-49
2020/12/26 02:03:19;;;;;;;1.15;0.72;;;;;;;4.58;60.76;100144.64;1803734;78;20998;-48
2020/12/26 02:05:47;;;;;;;1.05;0.85;;;;;;;4.60;60.76;100148.44;1800347;78;21607;-50
2020/12/26 02:08:15;;;;;;;0.93;0.65;;;;;;;4.63;60.71;100145.30;1800394;78;21726;-49
2020/12/26 02:10:43;;;;;;;2.77;1.00;;;;;;;4.68;60.51;100147.59;1800268;78;21435;-48
2020/12/26 02:13:11;;;;;;;1.25;0.60;;;;;;;4.68;60.45;100147.59;1800375;78;20942;-49
2020/12/26 02:15:39;;;;;;;1.00;0.62;;;;;;;4.72;60.38;100161.97;1799826;79;21481;-49
2020/12/26 02:18:08;;;;;;;1.75;0.80;;;;;;;4.68;60.33;100157.55;1799753;78;21148;-53
2020/12/26 02:20:37;;;;;;;1.52;0.60;;;;;;;4.67;60.23;100152.70;1799877;79;20986;-48
2020/12/26 02:23:04;;;;;;;1.12;0.40;;;;;;;4.66;60.23;100159.14;1799827;79;21192;-47
2020/12/26 02:25:33;;;;;;;1.67;0.60;;;;;;;4.65;60.23;100162.05;1799548;78;20938;-48
2020/12/26 02:28:02;;;;;;;1.32;0.53;;;;;;;4.63;60.37;100168.20;1799956;79;20943;-49
2020/12/26 02:30:31;;;;;;;1.27;0.62;;;;;;;4.61;60.33;100173.83;1799709;78;21073;-50
2020/12/26 02:32:58;;;;;;;1.05;0.45;;;;;;;4.56;60.30;100174.20;1799574;78;21057;-49
2020/12/26 02:35:26;;;;;;;1.25;0.45;;;;;;;4.54;60.36;100176.31;1799795;78;21200;-48
2020/12/26 02:37:54;;;;;;;1.30;0.60;;;;;;;4.48;60.26;100174.02;1799610;78;21067;-50
2020/12/26 02:40:21;;;;;;;1.35;0.50;;;;;;;4.49;60.41;100181.56;1799787;78;20927;-49
2020/12/26 02:42:50;;;;;;;1.07;0.40;;;;;;;4.50;60.36;100182.67;1799695;78;21001;-48
2020/12/26 02:45:18;;;;;;;0.93;0.37;;;;;;;4.53;60.31;100176.84;1799715;79;20990;-48
2020/12/26 02:47:47;;;;;;;1.37;0.50;;;;;;;4.57;60.29;100173.17;1799785;79;21250;-48
2020/12/26 02:50:14;;;;;;;1.57;0.50;;;;;;;4.60;60.13;100172.70;1799635;78;20950;-50
2020/12/26 02:52:42;;;;;;;1.27;0.40;;;;;;;4.61;59.92;100171.14;1799837;78;21472;-48
2020/12/26 02:55:09;;;;;;;1.15;0.42;;;;;;;4.62;59.78;100170.08;1784393;79;21022;-47
2020/12/26 02:57:38;;;;;;;0.95;0.37;;;;;;;4.60;59.55;100172.17;1799664;78;21592;-48
2020/12/26 03:00:06;;;;;;;0.53;0.20;;;;;;;4.54;59.53;100158.27;1799780;78;21295;-49
2020/12/26 03:02:34;;;;;;;1.65;0.35;;;;;;;4.60;59.45;100173.52;1799552;79;21208;-48
2020/12/26 03:05:01;;;;;;;0.50;0.20;;;;;;;4.62;59.23;100175.47;1799848;79;20942;-47
2020/12/26 03:07:29;;;;;;;0.60;0.20;;;;;;;4.64;58.99;100183.31;1799670;79;20950;-47
2020/12/26 03:09:57;;;;;;;0.80;0.33;;;;;;;4.62;58.97;100187.59;1799797;78;20934;-47
2020/12/26 03:12:25;;;;;;;1.10;0.40;;;;;;;4.61;58.93;100182.41;1799687;78;22259;-48
2020/12/26 03:14:52;;;;;;;1.12;0.20;;;;;;;4.64;58.90;100181.97;1799713;79;20926;-48
2020/12/26 03:20:06;;;;;;;0.90;0.30;;;;;;;4.71;58.42;100183.20;1776453;79;22771;-48
2020/12/26 03:22:34;;;;;;;0.57;0.30;;;;;;;4.68;58.38;100193.94;1749551;82;21068;-48
2020/12/26 03:25:03;;;;;;;0.30;0.10;;;;;;;4.69;58.27;100191.00;1749427;82;23530;-52
2020/12/26 03:27:31;;;;;;;0.80;0.30;;;;;;;4.69;58.22;100199.62;1749467;82;21543;-48
2020/12/26 03:30:00;;;;;;;0.80;0.20;;;;;;;4.67;58.22;100187.73;1749467;82;20989;-48
2020/12/26 03:32:28;;;;;;;0.70;0.30;;;;;;;4.64;58.26;100193.56;1749470;82;21119;-48
2020/12/26 03:34:56;;;;;;;1.12;0.20;;;;;;;4.66;58.25;100200.91;1749366;82;20969;-49
2020/12/26 03:37:23;;;;;;;0.75;0.20;;;;;;;4.66;58.16;100194.17;1749305;82;22106;-50
2020/12/26 03:39:51;;;;;;;0.62;0.30;;;;;;;4.64;58.32;100198.95;1749293;82;21040;-47
2020/12/26 03:42:19;;;;;;;0.80;0.30;;;;;;;4.62;58.37;100192.98;1749377;82;20965;-47
2020/12/26 03:44:47;;;;;;;0.72;0.37;;;;;;;4.61;58.42;100195.89;1749381;82;21032;-48
2020/12/26 03:47:15;;;;;;;0.68;0.40;;;;;;;4.60;58.34;100199.11;1749415;82;20937;-48
2020/12/26 03:49:42;;;;;;;0.70;0.30;;;;;;;4.56;58.36;100211.92;1748579;82;21849;-49
2020/12/26 03:52:11;;;;;;;1.15;0.40;;;;;;;4.56;58.45;100211.42;1718737;82;21061;-51
2020/12/26 03:54:38;;;;;;;1.47;0.40;;;;;;;4.56;58.45;100202.49;1719479;83;21661;-48
2020/12/26 03:57:07;;;;;;;0.70;0.20;;;;;;;4.56;58.38;100215.47;1719285;83;20902;-49
2020/12/26 03:59:35;;;;;;;0.93;0.28;;;;;;;4.56;58.33;100212.77;1719317;82;21064;-49
2020/12/26 04:02:02;;;;;;;0.60;0.30;;;;;;;4.55;58.32;100208.41;1719488;83;22154;-49
2020/12/26 04:04:31;;;;;;;0.72;0.20;;;;;;;4.56;58.43;100211.92;1719402;83;20945;-50
2020/12/26 04:06:58;;;;;;;0.40;0.30;;;;;;;4.60;58.35;100206.37;1719081;83;21071;-51
2020/12/26 04:09:27;;;;;;;0.98;0.37;;;;;;;4.62;58.21;100205.11;1719382;83;21089;-49
2020/12/26 04:11:55;;;;;;;0.60;0.30;;;;;;;4.64;58.05;100208.39;1719327;83;21500;-50
2020/12/26 04:14:22;;;;;;;0.50;0.20;;;;;;;4.68;57.98;100209.58;1719544;83;21751;-49
2020/12/26 04:16:57;;;;;;;0.62;0.30;;;;;;;4.68;57.93;100204.19;1719191;82;21080;-51
2020/12/26 04:19:26;;;;;;;1.75;0.50;;;;;;;4.68;57.79;100212.80;1711761;83;21022;-51
2020/12/26 04:21:54;;;;;;;0.70;0.28;;;;;;;4.68;57.89;100215.50;1706609;84;21580;-51
2020/12/26 04:24:23;;;;;;;1.47;0.40;;;;;;;4.67;57.80;100216.55;1706816;84;20966;-46
2020/12/26 04:26:51;;;;;;;3.27;0.33;;;;;;;4.67;57.79;100216.55;1706451;83;21045;-51
2020/12/26 04:29:21;;;;;;;0.78;0.30;;;;;;;4.69;57.80;100223.87;1706451;84;21095;-48
2020/12/26 04:31:50;;;;;;;1.07;0.40;;;;;;;4.71;57.69;100227.14;1706173;82;21010;-47
2020/12/26 04:34:18;;;;;;;0.55;0.30;;;;;;;4.72;57.67;100219.38;1706086;84;21639;-49
2020/12/26 04:36:46;;;;;;;0.62;0.35;;;;;;;4.71;57.67;100220.41;1706343;82;21496;-52
2020/12/26 04:39:14;;;;;;;2.77;0.40;;;;;;;4.70;57.70;100221.47;1705936;84;22131;-52
2020/12/26 04:41:42;;;;;;;0.60;0.20;;;;;;;4.71;57.64;100223.63;1706274;84;21568;-50
2020/12/26 04:44:11;;;;;;;0.75;0.40;;;;;;;4.68;57.68;100219.54;1706095;84;21049;-49
2020/12/26 04:46:40;;;;;;;0.95;0.30;;;;;;;4.63;57.66;100221.57;1706027;84;21615;-51
2020/12/26 04:49:10;;;;;;;0.93;0.35;;;;;;;4.58;57.68;100236.26;1706049;84;21159;-50
2020/12/26 04:51:40;;;;;;;0.60;0.30;;;;;;;4.51;57.71;100239.58;1705900;82;21420;-50
2020/12/26 04:54:25;;;;;;;0.95;0.20;;;;;;;4.48;57.78;100244.59;1706399;82;21691;-51
2020/12/26 04:56:54;;;;;;;1.12;0.40;;;;;;;4.48;57.80;100256.19;1706127;84;21141;-50
2020/12/26 04:59:23;;;;;;;1.35;0.40;;;;;;;4.48;57.73;100260.23;1706022;84;21557;-49
2020/12/26 05:01:51;;;;;;;1.72;0.40;;;;;;;4.48;57.67;100266.14;1706095;83;21037;-51
2020/12/26 05:04:19;;;;;;;0.80;0.40;;;;;;;4.45;57.69;100265.23;1706103;84;22300;-52
2020/12/26 05:06:54;;;;;;;1.02;0.25;;;;;;;4.38;57.70;100278.27;1706250;84;21641;-49
2020/12/26 05:09:22;;;;;;;0.30;0.20;;;;;;;4.34;57.83;100277.59;1706112;83;21029;-51
2020/12/26 05:12:00;;;;;;;1.62;0.50;;;;;;;4.31;57.87;100282.93;1706265;83;21050;-51
2020/12/26 05:14:30;;;;;;;0.98;0.30;;;;;;;4.29;57.93;100283.66;1706087;83;21695;-48
2020/12/26 05:16:58;;;;;;;1.20;0.45;;;;;;;4.33;57.93;100285.38;1706186;84;22356;-51
2020/12/26 05:19:26;;;;;;;1.30;0.40;;;;;;;4.34;57.90;100287.02;1709334;83;21460;-51
2020/12/26 05:21:55;;;;;;;0.75;0.20;;;;;;;4.34;57.83;100289.72;1713778;83;20942;-50
2020/12/26 05:24:25;;;;;;;0.65;0.47;;;;;;;4.32;57.76;100290.48;1714095;83;20926;-49
2020/12/26 05:26:53;;;;;;;0.85;0.28;;;;;;;4.29;57.76;100293.09;1714005;83;21144;-48
2020/12/26 05:29:22;;;;;;;0.60;0.20;;;;;;;4.29;57.84;100295.78;1714032;83;22268;-52
2020/12/26 05:31:58;;;;;;;2.35;0.30;;;;;;;4.29;57.76;100296.30;1714036;83;21171;-49
2020/12/26 05:34:33;;;;;;;;;;;;;;;4.27;57.67;100290.33;1712826;83;21538;-49
2020/12/26 05:37:02;;;;;;;0.75;0.30;;;;;;;4.22;57.71;100286.97;1714031;83;20148;-48
2020/12/26 05:39:37;;;;;;;1.00;0.30;;;;;;;4.20;57.52;100303.03;1713745;83;21034;-49
2020/12/26 05:42:05;;;;;;;0.50;0.20;;;;;;;4.18;57.55;100301.92;1714018;83;21188;-50
2020/12/26 05:44:37;;;;;;;3.33;0.30;;;;;;;4.21;57.43;100297.94;1713780;83;20966;-50
2020/12/26 05:47:06;;;;;;;1.72;0.30;;;;;;;4.23;57.43;100296.69;1714163;82;21464;-50
2020/12/26 05:49:39;;;;;;;1.00;0.33;;;;;;;4.26;57.38;100305.67;1713746;83;20949;-48
2020/12/26 05:52:10;;;;;;;0.90;0.30;;;;;;;4.28;57.14;100309.48;1713650;83;21150;-53
2020/12/26 05:54:49;;;;;;;1.72;0.28;;;;;;;4.27;57.04;100307.84;1714225;83;22360;-47
2020/12/26 05:57:18;;;;;;;0.60;0.30;;;;;;;4.29;56.85;100303.86;1713968;83;21025;-49
2020/12/26 05:59:49;;;;;;;0.78;0.30;;;;;;;4.32;56.67;100316.07;1713893;83;21511;-49
2020/12/26 06:02:23;;;;;;;2.22;0.25;;;;;;;4.30;56.75;100324.34;1714168;83;21749;-48
2020/12/26 06:05:03;;;;;;;3.70;0.35;;;;;;;4.29;56.83;100323.23;1714117;83;21583;-51
2020/12/26 06:07:36;;;;;;;2.37;0.50;;;;;;;4.28;56.82;100327.80;1713789;83;23658;-51
2020/12/26 06:10:06;;;;;;;1.85;0.33;;;;;;;4.25;57.07;100334.97;1713999;83;20962;-48
2020/12/26 06:12:34;;;;;;;4.22;0.78;;;;;;;4.24;57.24;100341.41;1713868;83;20954;-51
2020/12/26 06:15:04;;;;;;;1.27;0.53;;;;;;;4.21;57.30;100341.03;1713867;83;21159;-50
2020/12/26 06:17:33;;;;;;;3.23;0.50;;;;;;;4.22;57.21;100354.81;1714177;82;21473;-51
2020/12/26 06:20:05;;;;;;;1.95;0.75;;;;;;;4.20;57.22;100360.41;1709443;83;22040;-48
2020/12/26 06:22:51;;;;;;;1.67;0.80;;;;;;;4.18;57.33;100356.30;1706104;84;21493;-48
2020/12/26 06:25:21;;;;;;;6.35;1.85;;;;;;;4.16;57.48;100350.62;1706286;84;20982;-50
2020/12/26 06:27:59;;;;;;;3.15;1.05;;;;;;;4.13;57.79;100349.71;1706008;82;21026;-49
2020/12/26 06:30:29;;;;;;;4.70;1.12;;;;;;;4.10;58.01;100348.80;1706086;84;21494;-50
2020/12/26 06:32:57;;;;;;;1.80;0.65;;;;;;;4.09;58.06;100349.84;1705989;83;22019;-48
2020/12/26 06:35:26;;;;;;;2.95;0.80;;;;;;;4.06;57.78;100353.00;1706097;83;20958;-49
2020/12/26 06:38:18;;;;;;;1.52;1.10;;;;;;;4.03;57.83;100366.90;1706054;84;21081;-48
2020/12/26 06:41:05;;;;;;;5.42;1.30;;;;;;;4.01;57.82;100371.69;1706053;83;20954;-49
2020/12/26 06:43:51;;;;;;;3.98;1.42;;;;;;;4.01;58.12;100364.14;1706143;84;21076;-52
2020/12/26 06:46:25;;;;;;;;;;;;;;;3.99;58.12;100373.77;1708599;83;21199;-50
2020/12/26 06:48:54;;;;;;;4.05;1.62;;;;;;;4.02;58.07;100375.20;1705882;84;20265;-49
2020/12/26 06:51:36;;;;;;;9.95;4.72;;;;;;;4.01;57.95;100386.50;1706094;82;21037;-49
2020/12/26 06:54:07;;;;;;;6.35;3.40;;;;;;;3.96;57.92;100389.55;1686332;84;21099;-48
2020/12/26 06:56:45;;;;;;;4.80;2.58;;;;;;;3.83;58.14;100389.13;1705891;84;20926;-52
2020/12/26 06:59:15;;;;;;;4.85;2.52;;;;;;;3.75;58.41;100388.90;1705690;84;21586;-47
2020/12/26 07:01:46;;;;;;;3.33;1.95;;;;;;;3.78;58.59;100399.73;1706087;83;21025;-47
2020/12/26 07:04:18;;;;;;;3.67;1.55;;;;;;;3.86;58.52;100395.44;1705826;84;21006;-50
2020/12/26 07:06:55;;;;;;;2.98;1.85;;;;;;;3.97;58.36;100389.85;1706136;84;21037;-48
2020/12/26 07:09:46;;;;;;;6.70;3.08;;;;;;;4.20;58.28;100391.90;1706108;83;21072;-50
2020/12/26 07:12:15;;;;;;;5.30;1.85;;;;;;;4.57;57.78;100395.47;1706084;83;21374;-49
2020/12/26 07:14:46;;;;;;;5.42;1.62;;;;;;;5.03;56.93;100411.09;1705981;84;20958;-52
2020/12/26 07:17:19;;;;;;;5.30;2.02;;;;;;;5.32;56.27;100412.16;1663477;84;20942;-49
2020/12/26 07:19:48;;;;;;;3.22;1.75;;;;;;;5.58;55.57;100402.85;1705849;83;20938;-52
2020/12/26 07:22:24;;;;;;;6.50;2.00;;;;;;;5.90;54.92;100401.20;1706200;83;21021;-50
2020/12/26 07:24:56;;;;;;;4.42;1.75;;;;;;;6.19;54.28;100395.45;1706140;82;22447;-49
2020/12/26 07:27:37;;;;;;;3.23;1.40;;;;;;;6.45;53.57;100395.49;1776466;79;22780;-50
2020/12/26 07:30:11;;;;;;;5.15;2.20;;;;;;;6.47;53.02;100390.66;1749381;82;21195;-52
2020/12/26 07:32:55;;;;;;;6.30;1.90;;;;;;;6.43;53.15;100392.19;1749132;82;21327;-51
2020/12/26 07:35:34;;;;;;;3.22;1.47;;;;;;;6.47;52.87;100387.42;1749082;82;20953;-53
2020/12/26 07:38:12;;;;;;;4.58;2.10;;;;;;;6.57;52.55;100396.29;1749366;82;21084;-51
2020/12/26 07:40:45;;;;;;;2.25;1.87;;;;;;;6.70;52.39;100402.80;1734253;82;20946;-52
2020/12/26 07:43:17;;;;;;;3.20;2.42;;;;;;;6.70;52.39;100402.80;1727536;82;21085;-55
2020/12/26 07:45:46;;;;;;;3.47;2.20;;;;;;;6.85;52.30;100409.59;1711210;80;22312;-51
2020/12/26 07:48:15;;;;;;;4.03;2.65;;;;;;;7.07;51.89;100407.05;1734090;82;21617;-52
2020/12/26 07:50:44;;;;;;;3.62;2.35;;;;;;;7.29;51.58;100412.89;1735866;82;21068;-51
2020/12/26 07:53:13;;;;;;;3.47;2.08;;;;;;;7.50;50.98;100412.77;1709900;83;21600;-53
2020/12/26 07:55:41;;;;;;;4.28;2.02;;;;;;;7.71;50.33;100413.95;1715319;83;21037;-51
2020/12/26 07:58:15;;;;;;;3.22;2.25;;;;;;;7.84;49.70;100420.09;1695715;83;21499;-49
2020/12/26 08:00:44;;;;;;;2.70;1.75;;;;;;;7.90;49.64;100417.76;1712879;83;21540;-54
2020/12/26 08:03:13;;;;;;;2.80;1.98;;;;;;;8.01;49.22;100420.41;1691914;82;21197;-52
2020/12/26 08:05:48;;;;;;;6.37;2.40;;;;;;;8.13;49.17;100423.56;1710444;83;20997;-48
2020/12/26 08:08:21;;;;;;;4.53;2.45;;;;;;;8.31;48.93;100413.80;1700568;82;21000;-53
2020/12/26 08:11:00;;;;;;;3.12;2.40;;;;;;;8.49;48.52;100410.03;1695009;83;21519;-50
2020/12/26 08:13:31;;;;;;;3.47;2.08;;;;;;;8.62;47.88;100419.18;1717787;83;21101;-51
2020/12/26 08:16:03;;;;;;;4.03;2.85;;;;;;;8.67;47.72;100419.25;1697333;82;21096;-50
2020/12/26 08:18:35;;;;;;;3.20;1.90;;;;;;;8.64;47.79;100420.28;1674835;84;21186;-50
2020/12/26 08:21:06;;;;;;;3.27;2.10;;;;;;;8.44;48.12;100423.52;1647349;85;21228;-50
2020/12/26 08:23:33;;;;;;;2.72;2.02;;;;;;;8.33;48.22;100427.41;1674559;85;22417;-54
2020/12/26 08:26:01;;;;;;;3.15;1.47;;;;;;;8.15;48.58;100422.77;1671358;84;21222;-53
2020/12/26 08:28:30;;;;;;;5.17;1.85;;;;;;;8.00;48.70;100428.23;1663237;85;21139;-51
2020/12/26 08:31:02;;;;;;;1.98;1.40;;;;;;;7.76;49.09;100434.34;1663463;84;20962;-51
2020/12/26 08:33:38;;;;;;;2.60;1.60;;;;;;;7.62;49.61;100427.59;1644083;85;21084;-50
2020/12/26 08:36:27;;;;;;;3.45;1.52;;;;;;;7.52;50.10;100426.05;1663929;84;22080;-51
2020/12/26 08:38:57;;;;;;;1.90;0.98;;;;;;;7.41;50.30;100422.34;1663310;86;21081;-51
2020/12/26 08:41:25;;;;;;;1.75;1.15;;;;;;;7.28;50.74;100424.78;1663129;85;21172;-52
2020/12/26 08:43:54;;;;;;;1.40;0.60;;;;;;;7.21;51.09;100414.66;1663586;85;21077;-51
2020/12/26 08:46:25;;;;;;;4.30;0.40;;;;;;;7.13;51.29;100422.32;1663448;86;21639;-50
2020/12/26 08:48:57;;;;;;;0.95;0.45;;;;;;;6.96;51.51;100433.91;1663600;86;21456;-49
2020/12/26 08:51:29;;;;;;;2.08;0.60;;;;;;;6.83;51.89;100420.63;1663003;86;21160;-50
2020/12/26 08:53:57;;;;;;;4.83;0.33;;;;;;;6.72;52.20;100416.08;1663488;85;21184;-51
2020/12/26 08:56:37;;;;;;;0.65;0.37;;;;;;;6.57;52.64;100414.39;1663251;85;21029;-55
2020/12/26 08:59:06;;;;;;;3.08;0.70;;;;;;;6.45;53.22;100422.52;1662757;84;21115;-50
2020/12/26 09:01:34;;;;;;;1.10;0.45;;;;;;;6.34;53.55;100426.06;1665433;84;22128;-54
2020/12/26 09:04:04;;;;;;;2.30;0.80;;;;;;;6.29;53.74;100422.70;1677146;85;21159;-52
2020/12/26 09:06:38;;;;;;;1.22;0.40;;;;;;;6.24;54.23;100414.48;1677310;85;21057;-51
2020/12/26 09:09:19;;;;;;;1.50;0.60;;;;;;;6.15;54.24;100402.38;1677393;85;21021;-51
2020/12/26 09:11:48;;;;;;;0.55;0.30;;;;;;;6.13;54.42;100389.61;1677478;85;21033;-50
2020/12/26 09:14:20;;;;;;;3.17;0.50;;;;;;;6.13;54.71;100399.06;1658371;84;21429;-50
2020/12/26 09:16:59;;;;;;;1.22;0.65;;;;;;;6.13;54.71;100399.06;1690025;84;21151;-49
2020/12/26 09:19:43;;;;;;;1.55;0.70;;;;;;;6.14;54.90;100398.86;1690011;84;21555;-49
2020/12/26 09:22:11;;;;;;;2.05;0.65;;;;;;;6.12;54.96;100405.00;1677626;85;20966;-50
2020/12/26 09:24:40;;;;;;;1.70;0.60;;;;;;;6.14;55.10;100398.86;1678555;84;21037;-51
2020/12/26 09:27:20;;;;;;;1.00;0.53;;;;;;;6.18;55.21;100411.34;1712701;83;21388;-52
2020/12/26 09:29:54;;;;;;;1.25;0.82;;;;;;;6.23;55.27;100434.42;1714662;82;21548;-52
2020/12/26 09:32:20;;;;;;;1.67;0.78;;;;;;;6.16;55.28;100437.78;1719365;83;21021;-49
2020/12/26 09:34:49;;;;;;;2.17;0.72;;;;;;;6.17;55.41;100454.28;1719321;83;21134;-51
2020/12/26 09:37:17;;;;;;;1.25;0.65;;;;;;;6.13;55.49;100467.45;1719437;82;21153;-49
2020/12/26 09:39:46;;;;;;;1.92;0.47;;;;;;;6.11;55.64;100461.97;1717854;83;21400;-49
2020/12/26 09:42:14;;;;;;;1.77;0.68;;;;;;;6.06;55.70;100454.56;1670530;83;21360;-50
2020/12/26 09:44:47;;;;;;;1.40;0.60;;;;;;;5.98;55.84;100457.59;1719312;83;21045;-48
2020/12/26 09:47:15;;;;;;;3.83;0.60;;;;;;;5.98;55.84;100457.59;1719162;83;21598;-48
2020/12/26 09:49:44;;;;;;;1.72;0.70;;;;;;;5.96;56.05;100467.81;1692429;83;21265;-47
2020/12/26 09:52:12;;;;;;;3.25;0.90;;;;;;;5.97;56.38;100464.05;1692949;83;22285;-47
2020/12/26 09:54:41;;;;;;;2.02;1.10;;;;;;;5.92;56.25;100457.99;1692902;83;21202;-47
2020/12/26 09:57:09;;;;;;;2.10;0.80;;;;;;;5.85;56.55;100443.75;1718608;83;21009;-46
2020/12/26 09:59:40;;;;;;;1.20;1.05;;;;;;;5.83;56.74;100453.98;1713282;83;21085;-51
2020/12/26 10:02:10;;;;;;;2.62;1.35;;;;;;;5.82;56.84;100467.69;1706073;83;21132;-49
2020/12/26 10:04:40;;;;;;;3.50;1.40;;;;;;;5.77;57.06;100467.55;1701366;83;21369;-50
2020/12/26 10:07:09;;;;;;;2.65;1.72;;;;;;;5.78;57.25;100475.94;1710646;83;21723;-50
2020/12/26 10:09:37;;;;;;;4.58;1.75;;;;;;;5.76;57.24;100478.88;1719341;83;21582;-51
2020/12/26 10:12:05;;;;;;;2.12;1.42;;;;;;;5.61;58.00;100484.70;1707079;83;21158;-47
2020/12/26 10:14:33;;;;;;;2.98;1.98;;;;;;;5.61;58.00;100484.70;1690467;84;21122;-50
2020/12/26 10:17:02;;;;;;;2.33;1.35;;;;;;;5.43;58.48;100458.59;1688901;84;21472;-49
2020/12/26 10:19:30;;;;;;;4.17;1.90;;;;;;;5.43;58.48;100458.59;1689390;83;21199;-51
2020/12/26 10:21:59;;;;;;;3.62;1.98;;;;;;;5.44;58.54;100469.68;1689670;83;21194;-49
2020/12/26 10:24:26;;;;;;;2.08;1.35;;;;;;;5.42;58.68;100464.20;1689656;84;21203;-52
2020/12/26 10:26:55;;;;;;;6.78;1.15;;;;;;;5.41;58.81;100455.28;1689552;83;21621;-50
2020/12/26 10:29:23;;;;;;;1.92;1.60;;;;;;;5.42;59.00;100459.66;1689463;83;21267;-48
2020/12/26 10:31:52;;;;;;;3.65;2.10;;;;;;;5.37;59.08;100464.91;1689793;84;21663;-50
2020/12/26 10:34:19;;;;;;;3.55;2.15;;;;;;;5.30;59.17;100472.77;1709841;83;21018;-49
2020/12/26 10:36:47;;;;;;;11.78;2.12;;;;;;;5.25;59.45;100465.36;1719679;83;21012;-48
2020/12/26 10:39:15;;;;;;;5.80;2.33;;;;;;;5.27;59.54;100471.37;1719524;83;21138;-48
2020/12/26 10:41:44;;;;;;;5.90;2.67;;;;;;;5.26;59.53;100485.89;1719644;83;22317;-49
2020/12/26 10:44:16;;;;;;;4.78;2.17;;;;;;;5.24;59.64;100497.97;1719171;83;20953;-51
2020/12/26 10:46:47;;;;;;;3.22;2.30;;;;;;;5.20;59.79;100497.06;1719529;83;21029;-48
2020/12/26 10:49:15;;;;;;;2.92;2.40;;;;;;;5.09;60.00;100513.18;1719269;83;21116;-50
2020/12/26 10:51:51;;;;;;;4.90;2.92;;;;;;;5.09;60.00;100513.18;1719565;82;21215;-50
2020/12/26 10:54:19;;;;;;;2.80;1.62;;;;;;;5.07;60.25;100511.22;1719704;83;21209;-50
2020/12/26 10:56:48;;;;;;;4.72;2.40;;;;;;;5.08;60.52;100521.80;1719284;83;21037;-49
2020/12/26 10:59:19;;;;;;;4.95;2.52;;;;;;;5.04;60.76;100513.03;1719418;82;21013;-47
2020/12/26 11:01:47;;;;;;;4.97;2.95;;;;;;;5.04;60.87;100507.64;1719496;83;21114;-50
2020/12/26 11:04:15;;;;;;;4.22;2.42;;;;;;;5.04;60.88;100508.45;1719489;83;21122;-49
2020/12/26 11:06:49;;;;;;;4.37;3.02;;;;;;;5.02;61.17;100512.41;1719526;83;21366;-49
2020/12/26 11:09:19;;;;;;;3.62;2.60;;;;;;;4.98;61.22;100508.02;1719163;83;21151;-49
2020/12/26 11:11:52;;;;;;;5.12;2.92;;;;;;;5.05;61.28;100513.33;1719520;83;21033;-46
2020/12/26 11:14:20;;;;;;;8.30;3.30;;;;;;;5.07;61.23;100514.77;1719733;83;21514;-57
2020/12/26 11:16:54;;;;;;;4.83;2.72;;;;;;;5.09;61.21;100506.44;1719594;83;21634;-49
2020/12/26 11:19:22;;;;;;;4.03;2.55;;;;;;;5.08;61.40;100495.36;1719446;83;21369;-48
2020/12/26 11:21:54;;;;;;;3.50;2.37;;;;;;;5.08;61.40;100495.36;1719499;83;21989;-51
2020/12/26 11:24:22;;;;;;;3.12;2.37;;;;;;;5.06;61.34;100502.30;1693200;83;21575;-47
2020/12/26 11:26:54;;;;;;;4.10;1.90;;;;;;;5.00;61.34;100505.91;1719285;83;21410;-51
2020/12/26 11:29:26;;;;;;;5.72;2.52;;;;;;;4.97;61.44;100508.22;1719787;83;21579;-48
2020/12/26 11:31:59;;;;;;;2.65;2.45;;;;;;;5.03;61.56;100509.52;1719567;83;21272;-50
2020/12/26 11:34:28;;;;;;;2.45;2.22;;;;;;;5.03;61.56;100509.52;1719534;83;21650;-48
2020/12/26 11:36:57;;;;;;;2.65;2.30;;;;;;;5.18;61.50;100496.47;1669662;83;21021;-49
2020/12/26 11:39:24;;;;;;;2.90;1.92;;;;;;;5.18;61.50;100496.47;1692550;83;21230;-54
2020/12/26 11:41:52;;;;;;;3.95;2.25;;;;;;;5.31;61.37;100501.39;1718935;83;21096;-50
2020/12/26 11:44:25;;;;;;;2.75;2.20;;;;;;;5.35;61.02;100506.64;1719268;83;22054;-57
2020/12/26 11:46:54;;;;;;;2.42;1.95;;;;;;;5.33;60.95;100503.36;1692141;83;21195;-51
2020/12/26 11:49:25;;;;;;;3.50;2.20;;;;;;;5.37;60.97;100511.27;1692765;82;21198;-54
2020/12/26 11:51:54;;;;;;;5.65;2.30;;;;;;;5.37;60.97;100511.27;1718822;82;21227;-52